Time;durP1;ratioP1;P1;durP2;ratioP2;P2;SDS_P1;SDS_P2;PMS_P1;PMS_P2;Temp;Humidity;BMP_temperature;BMP_pressure;BME280_temperature;BME280_humidity;BME280_pressure;Samples;Min_cycle;Max_cycle;Signal;HPM_P1;HPM_P2
2024/01/10 00:01:32;;;;;;;;;44.75;39.25;;;;;;;;5101385;27;45245;-77
2024/01/10 00:03:57;;;;;;;;;47.00;40.25;;;;;;;;5082663;27;48051;-77
2024/01/10 00:06:23;;;;;;;;;48.75;40.00;;;;;;;;5101158;27;45258;-78
2024/01/10 00:08:48;;;;;;;;;43.75;38.50;;;;;;;;5101311;27;45306;-77
2024/01/10 00:11:13;;;;;;;;;40.00;37.00;;;;;;;;5100937;27;45315;-78
2024/01/10 00:13:39;;;;;;;;;33.00;31.50;;;;;;;;5100765;27;46152;-77
2024/01/10 00:16:04;;;;;;;;;43.00;38.50;;;;;;;;5101078;27;45260;-77
2024/01/10 00:18:30;;;;;;;;;44.75;39.50;;;;;;;;5100728;27;45402;-77
2024/01/10 00:20:55;;;;;;;;;40.50;37.75;;;;;;;;5100863;27;45297;-77
2024/01/10 00:23:21;;;;;;;;;40.00;39.75;;;;;;;;5100730;27;46591;-77
2024/01/10 00:25:46;;;;;;;;;40.75;34.25;;;;;;;;5099931;27;45387;-77
2024/01/10 00:28:12;;;;;;;;;48.00;35.00;;;;;;;;5100809;27;45306;-77
2024/01/10 00:30:37;;;;;;;;;41.00;37.50;;;;;;;;5100601;27;45338;-77
2024/01/10 00:33:03;;;;;;;;;36.50;35.00;;;;;;;;5100879;27;45316;-77
2024/01/10 00:35:28;;;;;;;;;43.00;38.75;;;;;;;;5082123;27;46109;-77
2024/01/10 00:37:53;;;;;;;;;40.75;35.25;;;;;;;;5100684;27;45248;-77
2024/01/10 00:40:18;;;;;;;;;45.25;36.00;;;;;;;;5100625;27;45330;-77
2024/01/10 00:42:43;;;;;;;;;44.25;36.50;;;;;;;;5100235;27;46275;-77
2024/01/10 00:45:09;;;;;;;;;38.00;34.75;;;;;;;;5100510;27;45295;-77
2024/01/10 00:47:34;;;;;;;;;37.00;33.00;;;;;;;;5100598;27;45364;-77
2024/01/10 00:49:59;;;;;;;;;40.75;37.00;;;;;;;;5100221;27;45535;-78
2024/01/10 00:52:24;;;;;;;;;38.50;33.00;;;;;;;;5081613;27;46833;-78
2024/01/10 00:54:49;;;;;;;;;38.75;37.00;;;;;;;;5100255;27;45333;-77
2024/01/10 00:57:14;;;;;;;;;34.75;32.25;;;;;;;;5100321;27;45247;-77
2024/01/10 00:59:40;;;;;;;;;43.75;38.50;;;;;;;;5100199;27;45513;-77
2024/01/10 01:02:05;;;;;;;;;41.50;38.25;;;;;;;;5100308;27;46300;-77
2024/01/10 01:04:30;;;;;;;;;39.75;35.00;;;;;;;;5100157;27;45306;-77
2024/01/10 01:06:56;;;;;;;;;38.50;32.50;;;;;;;;5081783;27;45331;-78
2024/01/10 01:09:21;;;;;;;;;36.75;36.25;;;;;;;;5080961;27;45408;-78
2024/01/10 01:11:46;;;;;;;;;41.00;38.75;;;;;;;;5078677;28;45468;-77
2024/01/10 01:14:11;;;;;;;;;43.00;40.25;;;;;;;;5079687;28;45306;-78
2024/01/10 01:16:36;;;;;;;;;49.50;41.75;;;;;;;;5061535;28;45300;-78
2024/01/10 01:19:02;;;;;;;;;36.75;36.75;;;;;;;;5079230;28;45181;-77
2024/01/10 01:21:27;;;;;;;;;34.00;30.75;;;;;;;;5079343;28;45309;-77
2024/01/10 01:23:52;;;;;;;;;39.50;36.50;;;;;;;;5079587;28;45273;-77
2024/01/10 01:26:17;;;;;;;;;41.00;36.25;;;;;;;;5079415;28;45205;-77
2024/01/10 01:28:42;;;;;;;;;41.50;38.25;;;;;;;;5079492;28;45266;-77
2024/01/10 01:31:08;;;;;;;;;39.75;37.00;;;;;;;;5079239;28;45318;-77
2024/01/10 01:33:33;;;;;;;;;44.00;37.25;;;;;;;;5077117;28;45133;-78
2024/01/10 01:35:58;;;;;;;;;41.75;36.50;;;;;;;;5060160;28;45302;-78
2024/01/10 01:38:24;;;;;;;;;41.50;38.75;;;;;;;;5102313;27;45271;-78
2024/01/10 01:40:49;;;;;;;;;39.50;37.00;;;;;;;;5103282;27;45159;-77
2024/01/10 01:43:21;;;;;;;;;36.25;33.25;;;;;;;;5102739;27;45320;-77
2024/01/10 01:45:47;;;;;;;;;40.50;37.75;;;;;;;;5103053;27;45452;-78
2024/01/10 01:48:12;;;;;;;;;47.25;40.25;;;;;;;;5103093;27;45294;-78
2024/01/10 01:50:37;;;;;;;;;45.75;36.00;;;;;;;;5102900;27;46131;-78
2024/01/10 01:53:03;;;;;;;;;40.00;37.75;;;;;;;;5103081;27;45129;-77
2024/01/10 01:55:28;;;;;;;;;47.75;40.25;;;;;;;;5096393;27;45460;-78
2024/01/10 01:57:53;;;;;;;;;41.25;35.75;;;;;;;;5094789;27;45473;-79
2024/01/10 02:00:18;;;;;;;;;48.00;39.50;;;;;;;;5102527;27;46197;-78
2024/01/10 02:02:44;;;;;;;;;27.75;27.25;;;;;;;;5103058;27;45164;-77
2024/01/10 02:05:09;;;;;;;;;37.50;36.25;;;;;;;;5103074;27;45552;-78
2024/01/10 02:07:34;;;;;;;;;40.00;35.50;;;;;;;;5102952;27;45350;-78
2024/01/10 02:10:00;;;;;;;;;37.50;35.00;;;;;;;;5102803;27;45286;-77
2024/01/10 02:12:25;;;;;;;;;44.00;40.50;;;;;;;;5084461;27;45690;-78
2024/01/10 02:14:50;;;;;;;;;44.50;36.50;;;;;;;;5103007;27;45618;-77
2024/01/10 02:17:15;;;;;;;;;35.75;34.75;;;;;;;;5102859;27;45639;-78
2024/01/10 02:19:40;;;;;;;;;36.75;33.00;;;;;;;;5102573;27;45311;-78
2024/01/10 02:22:06;;;;;;;;;34.50;33.75;;;;;;;;5102744;27;45450;-78
2024/01/10 02:24:31;;;;;;;;;41.25;35.00;;;;;;;;5102856;27;45251;-78
2024/01/10 02:26:56;;;;;;;;;34.25;32.25;;;;;;;;5102493;27;45403;-78
2024/01/10 02:29:23;;;;;;;;;35.00;33.75;;;;;;;;5102767;27;45374;-78
2024/01/10 02:31:49;;;;;;;;;43.50;38.25;;;;;;;;5102619;27;45378;-78
2024/01/10 02:34:14;;;;;;;;;38.75;35.75;;;;;;;;5102520;27;45360;-77
2024/01/10 02:36:39;;;;;;;;;41.00;38.50;;;;;;;;5102636;27;45350;-77
2024/01/10 02:39:04;;;;;;;;;38.25;35.00;;;;;;;;5102253;27;45321;-78
2024/01/10 02:41:29;;;;;;;;;36.25;35.25;;;;;;;;5102363;27;45362;-78
2024/01/10 02:43:58;;;;;;;;;40.25;35.00;;;;;;;;5084290;27;45490;-78
2024/01/10 02:46:23;;;;;;;;;39.25;38.50;;;;;;;;5083946;27;46985;-78
2024/01/10 02:48:49;;;;;;;;;42.50;39.25;;;;;;;;5101348;27;45833;-78
2024/01/10 02:51:14;;;;;;;;;39.75;36.75;;;;;;;;5102114;27;45267;-77
2024/01/10 02:53:39;;;;;;;;;39.25;37.00;;;;;;;;5102527;27;45490;-77
2024/01/10 02:56:05;;;;;;;;;47.75;37.75;;;;;;;;5102277;27;45330;-78
2024/01/10 02:58:30;;;;;;;;;30.75;27.75;;;;;;;;5083995;27;45813;-77
2024/01/10 03:00:57;;;;;;;;;38.75;36.50;;;;;;;;5081800;28;45648;-78
2024/01/10 03:03:22;;;;;;;;;42.25;35.75;;;;;;;;5063154;28;45574;-78
2024/01/10 03:05:47;;;;;;;;;37.50;33.75;;;;;;;;5081546;28;46134;-78
2024/01/10 03:08:12;;;;;;;;;31.75;27.00;;;;;;;;5081540;28;46163;-78
2024/01/10 03:10:37;;;;;;;;;40.00;33.25;;;;;;;;5081484;28;45766;-79
2024/01/10 03:13:03;;;;;;;;;41.75;35.50;;;;;;;;5081649;28;45339;-78
2024/01/10 03:15:28;;;;;;;;;38.50;36.25;;;;;;;;5081420;28;45380;-78
2024/01/10 03:17:53;;;;;;;;;33.00;31.50;;;;;;;;5081479;28;45306;-79
2024/01/10 03:20:18;;;;;;;;;39.75;37.75;;;;;;;;5081217;28;45368;-78
2024/01/10 03:22:43;;;;;;;;;40.50;38.50;;;;;;;;5081600;28;45306;-78
2024/01/10 03:25:08;;;;;;;;;29.75;29.75;;;;;;;;5081403;28;45415;-78
2024/01/10 03:27:34;;;;;;;;;44.50;38.50;;;;;;;;5080909;28;45390;-78
2024/01/10 03:29:59;;;;;;;;;42.50;37.50;;;;;;;;5081232;28;45394;-78
2024/01/10 03:32:24;;;;;;;;;33.25;31.25;;;;;;;;5081501;28;45300;-78
2024/01/10 03:34:51;;;;;;;;;30.00;27.25;;;;;;;;5081165;28;45305;-78
2024/01/10 03:37:16;;;;;;;;;36.75;36.75;;;;;;;;5080373;28;45176;-78
2024/01/10 03:39:41;;;;;;;;;46.00;37.50;;;;;;;;5080899;28;45391;-77
2024/01/10 03:42:06;;;;;;;;;36.00;34.50;;;;;;;;5080981;28;45290;-78
2024/01/10 03:44:32;;;;;;;;;37.00;33.50;;;;;;;;5081077;28;45187;-78
2024/01/10 03:46:57;;;;;;;;;29.50;27.00;;;;;;;;5081010;28;45261;-78
2024/01/10 03:49:22;;;;;;;;;40.50;34.50;;;;;;;;5080913;28;45184;-78
2024/01/10 03:51:47;;;;;;;;;35.75;29.00;;;;;;;;5080787;28;45415;-78
2024/01/10 03:54:12;;;;;;;;;28.00;26.75;;;;;;;;5080691;28;45296;-78
2024/01/10 03:56:37;;;;;;;;;34.50;31.75;;;;;;;;5082392;27;45339;-78
2024/01/10 03:59:03;;;;;;;;;34.50;33.25;;;;;;;;5100460;27;45453;-78
2024/01/10 04:01:28;;;;;;;;;36.00;32.50;;;;;;;;5100946;27;45329;-78
2024/01/10 04:03:53;;;;;;;;;38.75;35.50;;;;;;;;5101006;27;45477;-78
2024/01/10 04:06:18;;;;;;;;;44.00;38.75;;;;;;;;5101125;27;45227;-78
2024/01/10 04:08:43;;;;;;;;;43.25;38.00;;;;;;;;5101196;27;45292;-78
2024/01/10 04:11:09;;;;;;;;;35.75;34.00;;;;;;;;5100989;27;45239;-78
2024/01/10 04:13:34;;;;;;;;;34.25;30.25;;;;;;;;5101000;27;45469;-77
2024/01/10 04:15:59;;;;;;;;;40.25;33.00;;;;;;;;5100911;27;46180;-78
2024/01/10 04:18:24;;;;;;;;;34.50;32.25;;;;;;;;5100994;27;45431;-78
2024/01/10 04:20:50;;;;;;;;;34.00;32.75;;;;;;;;5100869;27;45483;-77
2024/01/10 04:23:15;;;;;;;;;45.00;38.50;;;;;;;;5100841;27;45308;-78
2024/01/10 04:25:40;;;;;;;;;37.00;34.50;;;;;;;;5100727;27;45353;-78
2024/01/10 04:28:05;;;;;;;;;34.75;31.00;;;;;;;;5100641;27;45281;-78
2024/01/10 04:30:31;;;;;;;;;39.75;30.50;;;;;;;;5100699;27;45315;-78
2024/01/10 04:32:56;;;;;;;;;36.75;34.25;;;;;;;;5100848;27;45395;-77
2024/01/10 04:35:21;;;;;;;;;38.25;36.75;;;;;;;;5100562;27;46481;-77
2024/01/10 04:37:46;;;;;;;;;43.75;38.50;;;;;;;;5100581;27;45432;-78
2024/01/10 04:40:11;;;;;;;;;32.25;28.75;;;;;;;;5100770;27;45338;-77
2024/01/10 04:42:36;;;;;;;;;39.50;38.75;;;;;;;;5100373;27;45240;-77
2024/01/10 04:45:02;;;;;;;;;34.75;33.25;;;;;;;;5100504;27;45334;-78
2024/01/10 04:47:27;;;;;;;;;42.00;37.75;;;;;;;;5100564;27;45240;-78
2024/01/10 04:49:52;;;;;;;;;41.00;33.25;;;;;;;;5100431;27;45288;-77
2024/01/10 04:52:18;;;;;;;;;35.75;35.25;;;;;;;;5100235;27;45306;-78
2024/01/10 04:54:43;;;;;;;;;36.75;30.00;;;;;;;;5100308;27;45463;-78
2024/01/10 04:57:08;;;;;;;;;40.25;36.75;;;;;;;;5094029;27;45259;-77
2024/01/10 04:59:33;;;;;;;;;41.50;38.25;;;;;;;;5080161;28;45290;-77
2024/01/10 05:01:58;;;;;;;;;36.50;31.50;;;;;;;;5079818;28;45278;-77
2024/01/10 05:04:24;;;;;;;;;41.50;34.75;;;;;;;;5079734;28;46256;-78
2024/01/10 05:06:49;;;;;;;;;41.00;37.50;;;;;;;;5079810;28;45364;-78
2024/01/10 05:09:14;;;;;;;;;45.50;39.25;;;;;;;;5080123;28;45126;-77
2024/01/10 05:11:39;;;;;;;;;34.00;30.75;;;;;;;;5078976;28;45297;-78
2024/01/10 05:14:05;;;;;;;;;39.50;39.25;;;;;;;;5079677;28;45401;-78
2024/01/10 05:16:30;;;;;;;;;43.75;40.50;;;;;;;;5079592;28;45247;-78
2024/01/10 05:18:56;;;;;;;;;42.75;39.50;;;;;;;;5079657;28;45368;-78
2024/01/10 05:21:21;;;;;;;;;34.00;31.75;;;;;;;;5079731;28;45255;-77
2024/01/10 05:23:46;;;;;;;;;48.75;39.25;;;;;;;;5079452;28;45203;-77
2024/01/10 05:26:12;;;;;;;;;55.25;45.25;;;;;;;;5079169;28;45331;-78
2024/01/10 05:28:37;;;;;;;;;46.50;39.50;;;;;;;;5079657;28;45402;-78
2024/01/10 05:31:02;;;;;;;;;39.75;35.25;;;;;;;;5079476;28;45449;-78
2024/01/10 05:33:28;;;;;;;;;34.00;33.25;;;;;;;;5079278;28;46140;-78
2024/01/10 05:35:53;;;;;;;;;40.50;33.00;;;;;;;;5079544;28;45145;-78
2024/01/10 05:38:18;;;;;;;;;43.00;39.50;;;;;;;;5079528;28;45300;-78
2024/01/10 05:40:43;;;;;;;;;59.75;48.00;;;;;;;;5079416;28;45528;-78
2024/01/10 05:43:10;;;;;;;;;74.75;58.00;;;;;;;;5060864;28;47058;-78
2024/01/10 05:45:35;;;;;;;;;66.25;52.50;;;;;;;;5079273;28;45391;-78
2024/01/10 05:48:00;;;;;;;;;44.50;39.00;;;;;;;;5079615;28;45454;-78
2024/01/10 05:50:26;;;;;;;;;43.50;39.00;;;;;;;;5079004;28;45481;-78
2024/01/10 05:52:51;;;;;;;;;65.00;52.00;;;;;;;;5079011;28;45319;-78
2024/01/10 05:55:16;;;;;;;;;43.50;41.00;;;;;;;;5079298;28;45485;-78
2024/01/10 05:57:42;;;;;;;;;33.75;33.25;;;;;;;;5089968;27;45442;-78
2024/01/10 06:00:09;;;;;;;;;48.50;41.75;;;;;;;;5099638;27;45442;-78
2024/01/10 06:02:38;;;;;;;;;38.00;35.50;;;;;;;;5099317;27;46085;-77
2024/01/10 06:05:06;;;;;;;;;57.50;45.25;;;;;;;;5099396;27;45318;-78
2024/01/10 06:07:31;;;;;;;;;62.50;49.25;;;;;;;;5099644;27;45242;-77
2024/01/10 06:09:56;;;;;;;;;57.25;42.25;;;;;;;;5082213;27;45373;-78
2024/01/10 06:12:22;;;;;;;;;47.25;40.50;;;;;;;;5078460;28;45296;-78
2024/01/10 06:14:47;;;;;;;;;61.50;47.50;;;;;;;;5077819;28;45323;-78
2024/01/10 06:17:12;;;;;;;;;33.75;31.00;;;;;;;;5078350;28;45262;-78
2024/01/10 06:19:37;;;;;;;;;39.75;32.50;;;;;;;;5084659;28;45764;-79
2024/01/10 06:22:02;;;;;;;;;65.00;52.00;;;;;;;;5079771;28;45446;-79
2024/01/10 06:24:28;;;;;;;;;44.00;37.00;;;;;;;;5083623;28;45408;-79
2024/01/10 06:26:53;;;;;;;;;66.75;51.75;;;;;;;;5086968;28;45311;-78
2024/01/10 06:29:18;;;;;;;;;39.25;36.50;;;;;;;;5089106;28;45378;-79
2024/01/10 06:31:43;;;;;;;;;29.75;26.75;;;;;;;;5060350;28;46398;-79
2024/01/10 06:34:09;;;;;;;;;40.00;32.75;;;;;;;;5054824;28;45395;-80
2024/01/10 06:36:34;;;;;;;;;40.50;38.50;;;;;;;;5077472;28;45781;-78
2024/01/10 06:38:59;;;;;;;;;46.00;41.75;;;;;;;;5073285;28;47064;-78
2024/01/10 06:41:25;;;;;;;;;41.25;33.25;;;;;;;;5084236;28;45438;-79
2024/01/10 06:43:53;;;;;;;;;33.75;29.00;;;;;;;;5088004;28;45252;-79
2024/01/10 06:46:19;;;;;;;;;29.00;28.25;;;;;;;;5088720;28;45300;-79
2024/01/10 06:48:44;;;;;;;;;35.00;32.00;;;;;;;;5088962;28;45208;-79
2024/01/10 06:51:10;;;;;;;;;27.75;25.50;;;;;;;;5091121;28;46138;-79
2024/01/10 06:53:35;;;;;;;;;31.75;27.25;;;;;;;;5092005;28;45353;-79
2024/01/10 06:56:00;;;;;;;;;54.00;44.50;;;;;;;;5094291;28;45369;-79
2024/01/10 06:58:25;;;;;;;;;34.00;31.00;;;;;;;;5089944;27;45453;-79
2024/01/10 07:00:51;;;;;;;;;46.25;39.00;;;;;;;;5109463;27;45476;-80
2024/01/10 07:03:17;;;;;;;;;38.25;36.00;;;;;;;;5113059;27;45596;-80
2024/01/10 07:05:44;;;;;;;;;29.50;29.50;;;;;;;;5054102;28;45404;-78
2024/01/10 07:08:09;;;;;;;;;24.25;23.50;;;;;;;;5060619;28;45532;-79
2024/01/10 07:10:34;;;;;;;;;33.50;33.25;;;;;;;;5044168;28;46993;-80
2024/01/10 07:13:03;;;;;;;;;26.25;24.25;;;;;;;;5081329;28;45263;-79
2024/01/10 07:15:29;;;;;;;;;28.75;27.75;;;;;;;;5071018;28;45206;-79
2024/01/10 07:17:54;;;;;;;;;31.25;28.25;;;;;;;;5080093;28;45250;-77
2024/01/10 07:20:19;;;;;;;;;28.50;25.50;;;;;;;;5085788;28;45473;-79
2024/01/10 07:22:45;;;;;;;;;35.75;30.75;;;;;;;;5088111;28;45129;-80
2024/01/10 07:25:14;;;;;;;;;32.00;30.50;;;;;;;;5086667;28;45327;-78
2024/01/10 07:27:39;;;;;;;;;33.25;29.50;;;;;;;;5081393;28;45493;-79
2024/01/10 07:30:13;;;;;;;;;29.00;26.75;;;;;;;;5062238;28;45552;-78
2024/01/10 07:32:38;;;;;;;;;30.00;30.00;;;;;;;;5061562;28;45387;-77
2024/01/10 07:35:03;;;;;;;;;33.75;29.50;;;;;;;;5041850;28;45482;-80
2024/01/10 07:37:29;;;;;;;;;27.75;25.75;;;;;;;;5060492;28;45414;-79
2024/01/10 07:39:54;;;;;;;;;36.00;30.25;;;;;;;;5068587;28;46444;-80
2024/01/10 07:42:19;;;;;;;;;31.00;28.25;;;;;;;;5080427;28;45529;-79
2024/01/10 07:44:44;;;;;;;;;28.50;25.50;;;;;;;;5062537;28;45441;-78
2024/01/10 07:47:10;;;;;;;;;28.50;25.25;;;;;;;;5070783;28;45649;-79
2024/01/10 07:49:35;;;;;;;;;34.75;32.75;;;;;;;;5060255;28;46101;-79
2024/01/10 07:52:01;;;;;;;;;33.50;32.25;;;;;;;;5076932;28;45374;-80
2024/01/10 07:54:26;;;;;;;;;27.50;26.50;;;;;;;;5058632;28;45411;-78
2024/01/10 07:56:53;;;;;;;;;26.75;26.75;;;;;;;;5079993;27;45715;-78
2024/01/10 07:59:18;;;;;;;;;28.75;27.50;;;;;;;;5100436;27;45318;-78
2024/01/10 08:01:44;;;;;;;;;35.50;34.75;;;;;;;;5099373;27;45308;-78
2024/01/10 08:04:10;;;;;;;;;36.75;33.25;;;;;;;;5100818;27;45696;-78
2024/01/10 08:06:35;;;;;;;;;31.00;28.75;;;;;;;;5100226;27;45354;-78
2024/01/10 08:09:00;;;;;;;;;34.75;30.00;;;;;;;;5098676;27;46413;-78
2024/01/10 08:11:25;;;;;;;;;33.00;28.75;;;;;;;;5068747;27;45364;-79
2024/01/10 08:13:51;;;;;;;;;31.00;30.00;;;;;;;;5063722;28;45352;-79
2024/01/10 08:16:18;;;;;;;;;29.50;28.50;;;;;;;;5057519;28;45642;-78
2024/01/10 08:18:43;;;;;;;;;31.00;28.00;;;;;;;;5057721;28;45493;-78
2024/01/10 08:21:10;;;;;;;;;30.25;29.50;;;;;;;;5058276;28;45298;-78
2024/01/10 08:23:35;;;;;;;;;29.25;23.00;;;;;;;;5059538;28;45375;-79
2024/01/10 08:26:00;;;;;;;;;40.75;36.50;;;;;;;;5059060;28;45327;-79
2024/01/10 08:28:26;;;;;;;;;38.50;33.25;;;;;;;;5058583;28;46162;-78
2024/01/10 08:30:51;;;;;;;;;36.75;32.00;;;;;;;;5066299;28;45740;-79
2024/01/10 08:33:17;;;;;;;;;33.00;30.50;;;;;;;;5078190;28;45279;-79
2024/01/10 08:35:43;;;;;;;;;34.75;32.50;;;;;;;;5080008;28;45282;-78
2024/01/10 08:38:08;;;;;;;;;35.75;35.00;;;;;;;;5079795;28;45363;-79
2024/01/10 08:40:33;;;;;;;;;43.00;40.00;;;;;;;;5062982;28;45269;-78
2024/01/10 08:42:58;;;;;;;;;30.75;27.75;;;;;;;;5064567;28;45392;-79
2024/01/10 08:45:24;;;;;;;;;39.50;36.00;;;;;;;;5070945;28;45785;-78
2024/01/10 08:47:49;;;;;;;;;36.00;32.75;;;;;;;;5061447;28;46001;-78
2024/01/10 08:50:15;;;;;;;;;29.25;28.25;;;;;;;;5079322;28;45343;-78
2024/01/10 08:52:40;;;;;;;;;32.50;31.75;;;;;;;;5079100;28;45640;-78
2024/01/10 08:55:05;;;;;;;;;47.75;38.50;;;;;;;;5079562;28;45327;-78
2024/01/10 08:57:31;;;;;;;;;26.50;23.00;;;;;;;;5063002;28;47120;-77
2024/01/10 08:59:56;;;;;;;;;24.75;24.00;;;;;;;;5078615;28;45410;-77
2024/01/10 09:02:23;;;;;;;;;32.75;27.25;;;;;;;;5078874;28;45622;-79
2024/01/10 09:04:48;;;;;;;;;27.50;27.25;;;;;;;;5048056;28;46805;-80
2024/01/10 09:07:13;;;;;;;;;28.00;24.75;;;;;;;;5071346;28;45523;-77
2024/01/10 09:09:39;;;;;;;;;34.00;30.50;;;;;;;;5078595;28;45312;-78
2024/01/10 09:12:04;;;;;;;;;48.00;41.50;;;;;;;;5078932;27;45374;-78
2024/01/10 09:14:29;;;;;;;;;36.50;36.00;;;;;;;;5060529;28;45462;-78
2024/01/10 09:16:55;;;;;;;;;31.25;28.50;;;;;;;;5085635;27;45529;-78
2024/01/10 09:19:20;;;;;;;;;37.50;31.25;;;;;;;;5096271;28;45374;-78
2024/01/10 09:21:45;;;;;;;;;31.50;28.50;;;;;;;;5079442;27;45267;-79
2024/01/10 09:24:11;;;;;;;;;59.00;45.00;;;;;;;;5060693;28;46202;-78
2024/01/10 09:26:36;;;;;;;;;24.50;23.75;;;;;;;;5061464;28;46431;-79
2024/01/10 09:29:01;;;;;;;;;28.50;23.00;;;;;;;;5073308;28;45269;-80
2024/01/10 09:31:26;;;;;;;;;37.00;32.25;;;;;;;;5074638;27;45181;-80
2024/01/10 09:33:52;;;;;;;;;32.00;29.25;;;;;;;;5063620;28;46990;-80
2024/01/10 09:36:17;;;;;;;;;27.50;27.50;;;;;;;;5067274;28;45263;-80
2024/01/10 09:38:42;;;;;;;;;30.00;28.25;;;;;;;;5074741;28;45211;-80
2024/01/10 09:41:07;;;;;;;;;26.50;26.50;;;;;;;;5050195;28;45551;-80
2024/01/10 09:43:35;;;;;;;;;29.25;26.25;;;;;;;;5076525;27;45432;-82
2024/01/10 09:46:02;;;;;;;;;35.00;30.00;;;;;;;;5075181;28;45323;-81
2024/01/10 09:48:28;;;;;;;;;25.50;23.75;;;;;;;;5080510;27;45430;-81
2024/01/10 09:50:53;;;;;;;;;33.50;27.50;;;;;;;;5069049;28;45461;-81
2024/01/10 09:53:26;;;;;;;;;33.00;28.75;;;;;;;;5046835;28;45968;-81
2024/01/10 09:55:52;;;;;;;;;11.25;9.00;;;;;;;;5062688;28;46019;-82
2024/01/10 09:58:20;;;;;;;;;29.50;29.50;;;;;;;;5080364;28;45280;-82
2024/01/10 10:00:45;;;;;;;;;30.75;30.50;;;;;;;;5070977;28;45217;-81
2024/01/10 10:03:12;;;;;;;;;73.00;58.50;;;;;;;;5057130;28;45934;-81
2024/01/10 10:05:38;;;;;;;;;88.25;68.00;;;;;;;;5086643;28;45366;-82
2024/01/10 10:08:06;;;;;;;;;65.75;53.75;;;;;;;;5081988;28;45407;-80
2024/01/10 10:10:31;;;;;;;;;65.25;50.75;;;;;;;;5078472;28;45601;-81
2024/01/10 10:12:57;;;;;;;;;39.00;38.25;;;;;;;;5060878;28;45383;-79
2024/01/10 10:15:22;;;;;;;;;43.75;38.50;;;;;;;;5071656;28;45398;-79
2024/01/10 10:17:49;;;;;;;;;57.50;48.00;;;;;;;;5082307;28;45668;-80
2024/01/10 10:20:20;;;;;;;;;46.00;38.00;;;;;;;;5062149;28;45329;-79
2024/01/10 10:23:02;;;;;;;;;35.50;32.50;;;;;;;;5044003;28;46657;-79
2024/01/10 10:25:29;;;;;;;;;30.00;26.00;;;;;;;;5063869;28;46011;-80
2024/01/10 10:27:54;;;;;;;;;45.00;39.50;;;;;;;;5071961;28;45241;-81
2024/01/10 10:30:19;;;;;;;;;46.00;39.75;;;;;;;;5066831;28;45239;-80
2024/01/10 10:32:45;;;;;;;;;63.00;49.75;;;;;;;;5063279;28;45431;-80
2024/01/10 10:35:10;;;;;;;;;24.25;24.25;;;;;;;;5064406;28;46011;-78
2024/01/10 10:37:35;;;;;;;;;30.25;29.25;;;;;;;;5081088;28;45384;-80
2024/01/10 10:40:00;;;;;;;;;39.00;36.50;;;;;;;;5082471;28;46017;-77
2024/01/10 10:42:28;;;;;;;;;29.25;24.75;;;;;;;;5083065;28;45727;-79
2024/01/10 10:44:57;;;;;;;;;29.50;26.50;;;;;;;;5084021;28;45366;-78
2024/01/10 10:47:25;;;;;;;;;34.25;32.00;;;;;;;;5082174;28;45258;-80
2024/01/10 10:49:52;;;;;;;;;36.25;33.50;;;;;;;;5082550;28;45342;-79
2024/01/10 10:52:19;;;;;;;;;52.00;44.50;;;;;;;;5082023;28;45314;-79
2024/01/10 10:54:46;;;;;;;;;35.75;31.75;;;;;;;;5082575;28;45362;-79
2024/01/10 10:57:11;;;;;;;;;31.50;30.50;;;;;;;;5081682;28;45218;-80
2024/01/10 10:59:37;;;;;;;;;27.00;26.00;;;;;;;;5082023;28;45256;-78
2024/01/10 11:02:04;;;;;;;;;33.00;28.00;;;;;;;;5082127;28;45481;-80
2024/01/10 11:04:29;;;;;;;;;31.75;28.50;;;;;;;;5081497;28;45352;-79
2024/01/10 11:06:55;;;;;;;;;34.75;27.25;;;;;;;;5081601;28;45192;-80
2024/01/10 11:09:23;;;;;;;;;36.25;35.50;;;;;;;;5080650;28;45382;-81
2024/01/10 11:12:07;;;;;;;;;30.00;23.00;;;;;;;;5081423;28;45406;-80
2024/01/10 11:14:41;;;;;;;;;49.50;37.50;;;;;;;;5063593;28;45979;-81
2024/01/10 11:17:29;;;;;;;;;31.00;27.25;;;;;;;;5081395;28;45431;-80
2024/01/10 11:20:13;;;;;;;;;37.25;34.75;;;;;;;;5081337;28;45398;-80
2024/01/10 11:23:07;;;;;;;;;39.75;37.00;;;;;;;;5081315;28;45332;-79
2024/01/10 11:25:34;;;;;;;;;38.00;34.50;;;;;;;;5081201;28;45441;-82
2024/01/10 11:28:03;;;;;;;;;35.50;34.50;;;;;;;;5081251;28;45311;-82
2024/01/10 11:30:41;;;;;;;;;32.25;29.75;;;;;;;;5081321;28;45216;-81
2024/01/10 11:33:18;;;;;;;;;30.50;29.25;;;;;;;;5075477;28;45346;-81
2024/01/10 11:36:03;;;;;;;;;34.00;30.00;;;;;;;;5060686;28;45352;-82
2024/01/10 11:38:29;;;;;;;;;35.75;32.25;;;;;;;;5068571;28;45391;-82
2024/01/10 11:40:55;;;;;;;;;34.50;29.75;;;;;;;;5060912;28;45297;-82
2024/01/10 11:43:21;;;;;;;;;39.00;35.25;;;;;;;;5061485;28;45327;-80
2024/01/10 11:45:54;;;;;;;;;33.75;31.50;;;;;;;;5060284;28;45342;-81
2024/01/10 11:48:30;;;;;;;;;29.75;27.50;;;;;;;;5059918;28;45366;-81
2024/01/10 11:50:56;;;;;;;;;36.50;33.00;;;;;;;;5064297;28;45612;-82
2024/01/10 11:53:42;;;;;;;;;35.75;32.50;;;;;;;;5080789;28;45292;-80
2024/01/10 11:56:11;;;;;;;;;28.50;26.25;;;;;;;;5066830;28;46316;-80
2024/01/10 11:59:08;;;;;;;;;34.25;30.75;;;;;;;;5098998;27;45516;-80
2024/01/10 12:01:33;;;;;;;;;35.75;35.00;;;;;;;;5049042;27;45334;-81
2024/01/10 12:04:00;;;;;;;;;32.00;30.50;;;;;;;;5059048;28;45981;-80
2024/01/10 12:06:25;;;;;;;;;31.50;28.75;;;;;;;;5070709;27;45377;-82
2024/01/10 12:08:50;;;;;;;;;41.75;37.50;;;;;;;;5076777;28;45331;-81
2024/01/10 12:11:16;;;;;;;;;60.00;47.75;;;;;;;;5068421;27;45525;-80
2024/01/10 12:13:41;;;;;;;;;44.00;36.25;;;;;;;;5059297;28;45426;-79
2024/01/10 12:16:06;;;;;;;;;30.75;27.75;;;;;;;;5072267;27;45509;-79
2024/01/10 12:18:31;;;;;;;;;33.00;28.25;;;;;;;;5076198;27;45302;-79
2024/01/10 12:20:57;;;;;;;;;33.50;28.75;;;;;;;;5076335;27;45399;-80
2024/01/10 12:23:22;;;;;;;;;31.25;28.00;;;;;;;;5059679;28;45790;-80
2024/01/10 12:25:50;;;;;;;;;30.75;28.00;;;;;;;;5075325;27;46168;-80
2024/01/10 12:28:16;;;;;;;;;30.00;30.00;;;;;;;;5068689;28;45478;-79
2024/01/10 12:30:41;;;;;;;;;36.00;32.00;;;;;;;;5069318;27;45532;-79
2024/01/10 12:33:08;;;;;;;;;36.50;33.75;;;;;;;;5074743;28;45465;-80
2024/01/10 12:35:33;;;;;;;;;26.25;25.25;;;;;;;;5077469;27;45433;-79
2024/01/10 12:37:58;;;;;;;;;38.75;30.50;;;;;;;;5076838;28;46640;-78
2024/01/10 12:40:24;;;;;;;;;34.50;33.00;;;;;;;;5072129;27;45422;-78
2024/01/10 12:42:49;;;;;;;;;39.00;34.25;;;;;;;;5078604;28;45388;-79
2024/01/10 12:45:21;;;;;;;;;29.75;29.00;;;;;;;;5079450;27;46436;-79
2024/01/10 12:47:46;;;;;;;;;28.75;26.00;;;;;;;;5078253;28;45452;-79
2024/01/10 12:50:12;;;;;;;;;35.25;32.25;;;;;;;;5075353;27;45514;-80
2024/01/10 12:52:39;;;;;;;;;34.50;32.25;;;;;;;;5062807;28;45275;-79
2024/01/10 12:55:04;;;;;;;;;28.75;25.00;;;;;;;;5054383;28;46415;-78
2024/01/10 12:57:30;;;;;;;;;29.25;27.50;;;;;;;;5072833;28;45399;-78
2024/01/10 12:59:55;;;;;;;;;29.25;25.25;;;;;;;;5066504;27;45477;-78
2024/01/10 13:02:20;;;;;;;;;36.25;32.50;;;;;;;;5066818;28;45568;-79
2024/01/10 13:04:46;;;;;;;;;35.00;32.00;;;;;;;;5076835;27;46158;-79
2024/01/10 13:07:11;;;;;;;;;40.00;34.00;;;;;;;;5078591;28;45294;-79
2024/01/10 13:09:36;;;;;;;;;38.00;34.00;;;;;;;;5060531;27;45320;-78
2024/01/10 13:12:01;;;;;;;;;55.25;43.25;;;;;;;;5069540;28;45269;-80
2024/01/10 13:14:27;;;;;;;;;54.25;45.00;;;;;;;;5064083;27;45534;-78
2024/01/10 13:16:52;;;;;;;;;42.75;37.00;;;;;;;;5078531;28;45288;-79
2024/01/10 13:19:17;;;;;;;;;36.50;33.50;;;;;;;;5077778;28;45409;-79
2024/01/10 13:21:42;;;;;;;;;34.00;29.75;;;;;;;;5060705;27;45344;-78
2024/01/10 13:24:07;;;;;;;;;30.00;28.25;;;;;;;;5042209;28;48128;-80
2024/01/10 13:26:33;;;;;;;;;38.25;34.00;;;;;;;;5063013;27;46388;-79
2024/01/10 13:28:58;;;;;;;;;32.50;29.00;;;;;;;;5065695;28;45300;-79
2024/01/10 13:31:23;;;;;;;;;33.00;29.50;;;;;;;;5078588;27;45473;-79
2024/01/10 13:33:50;;;;;;;;;32.50;28.00;;;;;;;;5065904;28;45305;-79
2024/01/10 13:36:15;;;;;;;;;41.00;37.50;;;;;;;;5073846;27;45338;-79
2024/01/10 13:38:40;;;;;;;;;50.25;41.50;;;;;;;;5067770;28;45544;-78
2024/01/10 13:41:06;;;;;;;;;39.25;34.25;;;;;;;;5066766;28;45506;-80
2024/01/10 13:43:31;;;;;;;;;55.00;44.25;;;;;;;;5070245;28;45893;-80
2024/01/10 13:45:56;;;;;;;;;54.50;44.25;;;;;;;;5073752;28;45303;-79
2024/01/10 13:48:21;;;;;;;;;55.00;45.00;;;;;;;;5063282;28;45271;-78
2024/01/10 13:50:46;;;;;;;;;198.33;192.33;;;;;;;;5072627;28;45374;-78
2024/01/10 13:53:12;;;;;;;;;35.75;32.75;;;;;;;;5081042;28;45409;-78
2024/01/10 13:55:38;;;;;;;;;32.25;32.00;;;;;;;;5078713;27;45407;-79
2024/01/10 13:58:03;;;;;;;;;34.75;31.25;;;;;;;;5076678;27;45521;-78
2024/01/10 14:00:28;;;;;;;;;36.75;31.75;;;;;;;;5079086;27;45397;-81
2024/01/10 14:02:58;;;;;;;;;31.33;29.33;;;;;;;;5070672;28;45485;-81
2024/01/10 14:05:23;;;;;;;;;34.00;31.67;;;;;;;;5073985;27;45365;-80
2024/01/10 14:07:49;;;;;;;;;42.25;36.75;;;;;;;;5052459;28;45670;-80
2024/01/10 14:10:14;;;;;;;;;38.00;34.00;;;;;;;;5073842;27;45272;-80